createdAt,value
2023-05-05T00:02:18.241Z,8.10
2023-05-05T00:04:46.241Z,8.60
2023-05-05T00:07:14.126Z,8.10
2023-05-05T00:09:42.953Z,7.80
2023-05-05T00:12:10.869Z,8.80
2023-05-05T00:14:38.720Z,7.90
2023-05-05T00:17:06.666Z,8.00
2023-05-05T00:19:34.619Z,7.70
2023-05-05T00:22:02.483Z,8.30
2023-05-05T00:24:30.454Z,8.40
2023-05-05T00:26:58.357Z,8.00
2023-05-05T00:29:26.890Z,7.90
2023-05-05T00:31:54.876Z,7.80
2023-05-05T00:34:22.796Z,7.70
2023-05-05T00:36:50.670Z,7.40
2023-05-05T00:39:18.558Z,8.20
2023-05-05T00:41:46.507Z,8.70
2023-05-05T00:44:14.384Z,7.90
2023-05-05T00:46:43.406Z,8.00
2023-05-05T00:49:12.574Z,8.10
2023-05-05T00:51:40.538Z,7.90
2023-05-05T00:54:08.813Z,7.40
2023-05-05T00:56:37.590Z,7.60
2023-05-05T00:59:05.648Z,7.40
2023-05-05T01:01:33.872Z,7.30
2023-05-05T01:04:01.947Z,7.50
2023-05-05T01:06:51.908Z,7.50
2023-05-05T01:10:07.578Z,7.80
2023-05-05T01:13:09.128Z,8.10
2023-05-05T01:16:01.623Z,8.30
2023-05-05T01:18:42.126Z,7.30
2023-05-05T01:21:16.823Z,7.80
2023-05-05T01:24:06.973Z,7.60
2023-05-05T01:27:09.560Z,7.60
2023-05-05T01:30:03.898Z,8.00
2023-05-05T01:32:41.203Z,8.50
2023-05-05T01:35:18.406Z,7.30
2023-05-05T01:37:52.018Z,7.00
2023-05-05T01:40:28.024Z,7.80
2023-05-05T01:42:58.462Z,7.20
2023-05-05T01:45:32.321Z,7.30
2023-05-05T01:48:02.237Z,6.90
2023-05-05T01:50:31.401Z,6.90
2023-05-05T01:53:01.599Z,7.00
2023-05-05T01:55:32.215Z,7.20
2023-05-05T01:58:02.446Z,7.30
2023-05-05T02:00:32.266Z,7.30
2023-05-05T02:03:04.570Z,7.90
2023-05-05T02:05:34.331Z,7.70
2023-05-05T02:08:05.630Z,7.70
2023-05-05T02:10:34.490Z,8.50
2023-05-05T02:13:03.147Z,10.30
2023-05-05T02:15:33.759Z,9.80
2023-05-05T02:18:02.590Z,7.50
2023-05-05T02:20:31.887Z,8.00
2023-05-05T02:23:00.160Z,8.10
2023-05-05T02:25:37.353Z,7.20
2023-05-05T02:28:11.462Z,7.10
2023-05-05T02:30:40.807Z,6.80
2023-05-05T02:33:11.792Z,7.00
2023-05-05T02:35:42.256Z,7.50
2023-05-05T02:38:17.505Z,8.20
2023-05-05T02:40:49.933Z,8.00
2023-05-05T02:43:21.653Z,7.20
2023-05-05T02:45:49.822Z,6.90
2023-05-05T02:48:18.412Z,7.10
2023-05-05T02:50:46.367Z,8.10
2023-05-05T02:53:29.463Z,7.80
2023-05-05T02:56:11.392Z,14.40
2023-05-05T02:59:05.016Z,7.40
2023-05-05T03:01:59.939Z,7.50
2023-05-05T03:04:37.168Z,6.30
2023-05-05T03:07:11.849Z,6.00
2023-05-05T03:10:06.089Z,7.30
2023-05-05T03:12:48.598Z,7.80
2023-05-05T03:15:34.790Z,8.10
2023-05-05T03:18:06.517Z,7.50
2023-05-05T03:20:35.827Z,8.20
2023-05-05T03:23:08.007Z,8.50
2023-05-05T03:25:46.642Z,7.80
2023-05-05T03:28:33.265Z,8.50
2023-05-05T03:31:04.721Z,8.30
2023-05-05T03:33:33.015Z,8.50
2023-05-05T03:36:01.563Z,8.20
2023-05-05T03:38:29.546Z,7.90
2023-05-05T03:41:00.865Z,8.40
2023-05-05T03:43:29.075Z,10.40
2023-05-05T03:45:57.206Z,11.00
2023-05-05T03:48:25.895Z,11.00
2023-05-05T03:50:54.142Z,10.80
2023-05-05T03:53:23.188Z,10.70
2023-05-05T03:55:52.593Z,10.00
2023-05-05T03:58:20.580Z,10.40
2023-05-05T04:00:48.971Z,11.10
2023-05-05T04:03:18.351Z,11.30
2023-05-05T04:05:47.227Z,10.10
2023-05-05T04:08:15.608Z,8.80
2023-05-05T04:10:43.576Z,9.50
2023-05-05T04:13:12.028Z,9.50
2023-05-05T04:15:47.024Z,9.80
2023-05-05T04:20:43.503Z,11.30
2023-05-05T04:23:11.942Z,22.10
2023-05-05T04:25:41.419Z,14.70
2023-05-05T04:28:10.743Z,12.60
2023-05-05T04:30:38.835Z,14.70
2023-05-05T04:33:06.914Z,18.50
2023-05-05T04:35:35.166Z,19.50
2023-05-05T04:38:03.626Z,17.70
2023-05-05T04:40:31.990Z,13.30
2023-05-05T04:43:00.383Z,11.30
2023-05-05T04:45:28.326Z,14.40
2023-05-05T04:47:56.838Z,15.60
2023-05-05T04:50:24.819Z,15.50
2023-05-05T04:52:52.908Z,18.10
2023-05-05T04:55:21.424Z,16.50
2023-05-05T04:57:49.358Z,16.80
2023-05-05T05:00:17.786Z,14.80
2023-05-05T05:02:45.901Z,13.00
2023-05-05T05:05:14.377Z,13.70
2023-05-05T05:07:42.365Z,11.90
2023-05-05T05:10:10.886Z,12.50
2023-05-05T05:12:39.025Z,12.10
2023-05-05T05:15:08.128Z,11.70
2023-05-05T05:17:36.336Z,11.70
2023-05-05T05:20:05.377Z,13.10
2023-05-05T05:22:35.052Z,9.60
2023-05-05T05:25:03.466Z,9.80
2023-05-05T05:27:32.000Z,10.40
2023-05-05T05:30:00.073Z,8.70
2023-05-05T05:32:29.639Z,6.90
2023-05-05T05:34:57.673Z,7.40
2023-05-05T05:37:29.790Z,8.60
2023-05-05T05:39:58.151Z,7.70
2023-05-05T05:42:26.867Z,7.90
2023-05-05T05:44:55.060Z,7.50
2023-05-05T05:47:23.952Z,7.80
2023-05-05T05:49:52.263Z,7.80
2023-05-05T05:52:20.753Z,7.20
2023-05-05T05:54:49.613Z,8.60
2023-05-05T05:57:17.752Z,7.20
2023-05-05T05:59:45.830Z,7.40
2023-05-05T06:02:14.213Z,6.90
2023-05-05T06:04:42.455Z,8.10
2023-05-05T06:07:10.870Z,7.40
2023-05-05T06:09:38.977Z,7.80
2023-05-05T06:12:07.199Z,7.20
2023-05-05T06:14:36.340Z,7.60
2023-05-05T06:17:04.414Z,7.40
2023-05-05T06:19:33.139Z,7.50
2023-05-05T06:22:01.148Z,7.10
2023-05-05T06:24:29.234Z,6.30
2023-05-05T06:26:59.530Z,6.20
2023-05-05T06:29:28.304Z,6.70
2023-05-05T06:31:56.558Z,6.20
2023-05-05T06:34:24.584Z,6.00
2023-05-05T06:36:52.462Z,6.10
2023-05-05T06:39:20.778Z,5.90
2023-05-05T06:41:48.720Z,5.70
2023-05-05T06:44:16.650Z,6.20
2023-05-05T06:46:44.664Z,5.60
2023-05-05T06:49:12.918Z,6.00
2023-05-05T06:51:42.755Z,5.30
2023-05-05T06:54:11.039Z,5.40
2023-05-05T06:56:38.969Z,6.10
2023-05-05T06:59:06.933Z,6.10
2023-05-05T07:01:34.906Z,5.60
2023-05-05T07:04:03.095Z,5.50
2023-05-05T07:06:32.017Z,5.50
2023-05-05T07:08:59.958Z,5.60
2023-05-05T07:11:28.097Z,6.60
2023-05-05T07:13:56.060Z,6.00
2023-05-05T07:16:27.177Z,6.30
2023-05-05T07:18:55.352Z,6.00
2023-05-05T07:21:23.206Z,6.30
2023-05-05T07:23:51.204Z,6.60
2023-05-05T07:26:19.106Z,6.70
2023-05-05T07:28:47.045Z,6.10
2023-05-05T07:31:14.941Z,6.30
2023-05-05T07:33:42.853Z,6.00
2023-05-05T07:36:10.907Z,6.10
2023-05-05T07:38:38.858Z,5.60
2023-05-05T07:41:06.823Z,5.90
2023-05-05T07:43:34.758Z,5.20
2023-05-05T07:46:02.720Z,6.30
2023-05-05T07:48:30.963Z,5.20
2023-05-05T07:50:59.101Z,5.10
2023-05-05T07:53:27.358Z,5.90
2023-05-05T07:55:55.951Z,5.10
2023-05-05T07:58:24.148Z,6.90
2023-05-05T08:00:52.088Z,5.00
2023-05-05T08:03:24.532Z,5.50
2023-05-05T08:05:54.629Z,4.60
2023-05-05T08:08:25.047Z,4.40
2023-05-05T08:10:53.476Z,4.40
2023-05-05T08:13:21.679Z,4.60
2023-05-05T08:15:49.548Z,4.20
2023-05-05T08:18:17.431Z,4.50
2023-05-05T08:20:45.624Z,4.40
2023-05-05T08:23:13.666Z,4.60
2023-05-05T08:25:41.908Z,4.10
2023-05-05T08:28:10.278Z,4.30
2023-05-05T08:30:38.893Z,4.90
2023-05-05T08:33:06.909Z,5.30
2023-05-05T08:35:34.902Z,4.60
2023-05-05T08:38:02.894Z,4.50
2023-05-05T08:40:36.940Z,4.70
2023-05-05T08:43:05.280Z,4.70
2023-05-05T08:45:34.083Z,4.70
2023-05-05T08:48:04.892Z,4.70
2023-05-05T08:50:33.197Z,6.00
2023-05-05T08:53:10.772Z,5.00
2023-05-05T08:55:46.610Z,4.40
2023-05-05T08:58:16.953Z,4.90
2023-05-05T09:00:45.904Z,4.80
2023-05-05T09:03:15.695Z,4.40
2023-05-05T09:05:44.471Z,5.10
2023-05-05T09:08:12.687Z,4.90
2023-05-05T09:10:41.871Z,4.40
2023-05-05T09:13:09.960Z,4.60
2023-05-05T09:15:39.243Z,5.40
2023-05-05T09:18:12.254Z,4.30
2023-05-05T09:20:41.590Z,4.80
2023-05-05T09:23:20.501Z,4.50
2023-05-05T09:26:04.472Z,4.60
2023-05-05T09:28:32.539Z,4.50
2023-05-05T09:31:15.962Z,5.20
2023-05-05T09:33:44.455Z,4.90
2023-05-05T09:36:12.605Z,5.70
2023-05-05T09:38:40.647Z,5.00
2023-05-05T09:41:08.563Z,5.00
2023-05-05T09:43:52.654Z,4.60
2023-05-05T09:46:21.152Z,4.50
2023-05-05T09:48:49.130Z,4.80
2023-05-05T09:51:29.478Z,5.00
2023-05-05T09:53:57.976Z,4.60
2023-05-05T09:56:38.552Z,4.50
2023-05-05T09:59:09.523Z,4.60
2023-05-05T10:01:38.842Z,4.90
2023-05-05T10:04:07.007Z,4.80
2023-05-05T10:06:44.546Z,4.40
2023-05-05T10:09:12.603Z,3.80
2023-05-05T10:11:46.650Z,4.10
2023-05-05T10:16:49.077Z,4.00
2023-05-05T10:19:19.168Z,4.30
2023-05-05T10:22:01.781Z,4.80
2023-05-05T10:24:38.832Z,4.00
2023-05-05T10:27:17.915Z,3.80
2023-05-05T10:29:50.039Z,3.40
2023-05-05T10:32:52.939Z,3.40
2023-05-05T10:35:22.997Z,3.30
2023-05-05T10:37:51.033Z,3.50
2023-05-05T10:40:22.399Z,3.70
2023-05-05T10:42:51.453Z,3.80
2023-05-05T10:45:19.536Z,3.80
2023-05-05T10:47:47.930Z,3.40
2023-05-05T10:50:36.694Z,3.30
2023-05-05T10:53:32.830Z,3.20
2023-05-05T10:56:10.898Z,3.00
2023-05-05T10:58:58.245Z,3.20
2023-05-05T11:01:31.354Z,3.40
2023-05-05T11:04:19.578Z,4.20
2023-05-05T11:07:14.954Z,3.00
2023-05-05T11:10:03.521Z,3.20
2023-05-05T11:12:34.607Z,3.20
2023-05-05T11:15:22.401Z,3.00
2023-05-05T11:17:51.242Z,2.80
2023-05-05T11:20:43.714Z,2.90
2023-05-05T11:23:11.929Z,3.60
2023-05-05T11:25:44.759Z,3.70
2023-05-05T11:28:18.249Z,3.20
2023-05-05T11:30:55.030Z,2.90
2023-05-05T11:33:23.174Z,2.80
2023-05-05T11:35:55.288Z,3.20
2023-05-05T11:39:05.127Z,3.40
2023-05-05T11:41:33.050Z,3.20
2023-05-05T11:44:14.098Z,2.90
2023-05-05T11:47:04.967Z,3.10
2023-05-05T11:49:38.142Z,3.20
2023-05-05T11:52:12.571Z,3.10
2023-05-05T11:54:47.756Z,3.30
2023-05-05T11:57:19.476Z,3.00
2023-05-05T11:59:52.868Z,2.80
2023-05-05T12:02:22.047Z,3.40
2023-05-05T12:04:51.043Z,3.50
2023-05-05T12:07:20.975Z,2.90
2023-05-05T12:09:50.123Z,2.60
2023-05-05T12:12:18.784Z,2.60
2023-05-05T12:14:52.558Z,2.90
2023-05-05T12:17:22.108Z,2.90
2023-05-05T12:19:54.622Z,3.10
2023-05-05T12:22:24.609Z,3.20
2023-05-05T12:25:00.294Z,3.50
2023-05-05T12:27:28.946Z,3.00
2023-05-05T12:30:10.234Z,2.90
2023-05-05T12:32:38.416Z,2.80
2023-05-05T12:35:07.980Z,2.80
2023-05-05T12:37:36.722Z,2.60
2023-05-05T12:40:06.605Z,3.10
2023-05-05T12:42:40.089Z,2.90
2023-05-05T12:45:17.526Z,3.20
2023-05-05T12:47:45.568Z,2.90
2023-05-05T12:50:13.476Z,3.30
2023-05-05T12:52:45.059Z,3.20
2023-05-05T12:55:13.350Z,3.00
2023-05-05T12:58:01.547Z,2.60
2023-05-05T13:00:29.488Z,3.50
2023-05-05T13:02:58.177Z,2.80
2023-05-05T13:05:34.376Z,3.10
2023-05-05T13:08:03.046Z,3.00
2023-05-05T13:10:31.500Z,2.90
2023-05-05T13:12:59.647Z,3.20
2023-05-05T13:15:28.069Z,6.30
2023-05-05T13:18:00.603Z,2.60
2023-05-05T13:20:29.246Z,3.00
2023-05-05T13:22:57.478Z,2.80
2023-05-05T13:25:25.293Z,2.40
2023-05-05T13:27:53.082Z,2.60
2023-05-05T13:30:21.165Z,2.60
2023-05-05T13:32:49.154Z,2.60
2023-05-05T13:35:20.584Z,2.80
2023-05-05T13:37:49.089Z,2.80
2023-05-05T13:40:16.958Z,2.30
2023-05-05T13:42:44.910Z,2.60
2023-05-05T13:45:14.226Z,2.50
2023-05-05T13:47:43.049Z,2.60
2023-05-05T13:50:11.384Z,2.50
2023-05-05T13:52:39.249Z,2.30
2023-05-05T13:55:07.784Z,2.60
2023-05-05T13:57:35.787Z,2.60
2023-05-05T14:00:04.521Z,2.10
2023-05-05T14:02:35.753Z,2.80
2023-05-05T14:05:04.177Z,2.40
2023-05-05T14:07:32.931Z,2.80
2023-05-05T14:10:00.879Z,3.10
2023-05-05T14:12:28.848Z,2.90
2023-05-05T14:14:56.731Z,2.60
2023-05-05T14:17:27.588Z,2.80
2023-05-05T14:19:55.755Z,2.60
2023-05-05T14:22:23.905Z,2.60
2023-05-05T14:24:51.895Z,2.40
2023-05-05T14:27:19.849Z,2.60
2023-05-05T14:29:47.746Z,2.30
2023-05-05T14:32:15.874Z,2.50
2023-05-05T14:34:43.930Z,2.40
2023-05-05T14:37:11.801Z,2.40
2023-05-05T14:39:39.653Z,2.30
2023-05-05T14:42:07.616Z,2.50
2023-05-05T14:44:36.243Z,2.40
2023-05-05T14:47:04.247Z,3.10
2023-05-05T14:49:32.430Z,2.60
2023-05-05T14:52:00.468Z,2.40
2023-05-05T14:54:29.087Z,2.30
2023-05-05T14:56:58.453Z,2.30
2023-05-05T14:59:27.754Z,2.40
2023-05-05T15:01:56.599Z,2.20
2023-05-05T15:04:24.706Z,2.60
2023-05-05T15:06:52.668Z,2.40
2023-05-05T15:09:20.616Z,2.40
2023-05-05T15:11:48.579Z,2.30
2023-05-05T15:14:16.521Z,2.50
2023-05-05T15:16:46.815Z,2.10
2023-05-05T15:19:14.815Z,2.00
2023-05-05T15:21:42.713Z,2.30
2023-05-05T15:24:10.669Z,2.30
2023-05-05T15:26:38.643Z,2.30
2023-05-05T15:29:06.521Z,2.50
2023-05-05T15:31:34.445Z,2.40
2023-05-05T15:34:02.404Z,2.30
2023-05-05T15:36:30.363Z,2.10
2023-05-05T15:38:58.305Z,2.40
2023-05-05T15:41:29.437Z,2.50
2023-05-05T15:43:58.101Z,2.50
2023-05-05T15:46:26.450Z,2.30
2023-05-05T15:48:54.466Z,2.50
2023-05-05T15:51:22.419Z,2.90
2023-05-05T15:53:52.427Z,2.80
2023-05-05T15:56:20.407Z,2.60
2023-05-05T15:58:48.289Z,2.50
2023-05-05T16:01:16.728Z,2.90
2023-05-05T16:03:44.785Z,2.60
2023-05-05T16:06:12.976Z,2.90
2023-05-05T16:08:40.970Z,2.50
2023-05-05T16:11:08.885Z,2.90
2023-05-05T16:13:39.042Z,3.10
2023-05-05T16:16:07.163Z,3.30
2023-05-05T16:18:35.076Z,2.50
2023-05-05T16:21:03.057Z,2.70
2023-05-05T16:23:30.980Z,2.90
2023-05-05T16:25:58.900Z,2.60
2023-05-05T16:28:27.263Z,2.80
2023-05-05T16:30:55.163Z,3.00
2023-05-05T16:33:23.085Z,2.90
2023-05-05T16:35:51.014Z,3.20
2023-05-05T16:38:18.966Z,3.10
2023-05-05T16:40:46.946Z,3.20
2023-05-05T16:43:14.905Z,3.50
2023-05-05T16:45:43.544Z,3.40
2023-05-05T16:48:12.442Z,3.00
2023-05-05T16:50:40.394Z,3.40
2023-05-05T16:53:09.306Z,3.20
2023-05-05T16:55:37.567Z,3.00
2023-05-05T16:58:05.558Z,3.00
2023-05-05T17:00:33.911Z,2.60
2023-05-05T17:03:01.847Z,3.70
2023-05-05T17:05:30.189Z,3.30
2023-05-05T17:07:58.687Z,3.30
2023-05-05T17:10:27.191Z,3.20
2023-05-05T17:12:55.156Z,3.30
2023-05-05T17:15:23.099Z,3.40
2023-05-05T17:17:51.109Z,3.90
2023-05-05T17:20:19.069Z,3.70
2023-05-05T17:22:47.031Z,3.40
2023-05-05T17:25:14.999Z,4.00
2023-05-05T17:27:42.904Z,3.60
2023-05-05T17:30:11.186Z,3.40
2023-05-05T17:32:39.224Z,3.70
2023-05-05T17:35:07.703Z,3.90
2023-05-05T17:37:36.728Z,3.90
2023-05-05T17:40:05.739Z,3.90
2023-05-05T17:42:33.801Z,3.90
2023-05-05T17:45:03.034Z,4.00
2023-05-05T17:47:31.078Z,3.50
2023-05-05T17:49:59.527Z,4.00
2023-05-05T17:52:27.556Z,3.80
2023-05-05T17:54:55.617Z,4.50
2023-05-05T17:57:23.762Z,4.90
2023-05-05T17:59:53.749Z,4.80
2023-05-05T18:02:22.132Z,5.20
2023-05-05T18:04:50.113Z,5.80
2023-05-05T18:07:18.007Z,7.20
2023-05-05T18:09:45.906Z,6.70
2023-05-05T18:12:13.860Z,6.90
2023-05-05T18:14:41.866Z,5.80
2023-05-05T18:17:09.783Z,6.00
2023-05-05T18:19:39.148Z,5.00
2023-05-05T18:22:07.167Z,7.10
2023-05-05T18:24:35.124Z,6.70
2023-05-05T18:27:06.040Z,8.40
2023-05-05T18:29:35.329Z,9.40
2023-05-05T18:32:05.876Z,13.30
2023-05-05T18:34:34.475Z,10.60
2023-05-05T18:37:02.485Z,10.40
2023-05-05T18:39:30.417Z,12.10
2023-05-05T18:41:58.395Z,10.80
2023-05-05T18:44:26.611Z,11.30
2023-05-05T18:46:54.597Z,10.30
2023-05-05T18:49:23.395Z,10.90
2023-05-05T18:51:52.202Z,10.20
2023-05-05T18:54:21.367Z,10.30
2023-05-05T18:56:49.981Z,11.10
2023-05-05T18:59:17.916Z,9.90
2023-05-05T19:01:46.100Z,12.20
2023-05-05T19:04:29.587Z,9.10
2023-05-05T19:06:59.564Z,8.90
2023-05-05T19:09:27.934Z,9.80
2023-05-05T19:11:56.381Z,8.70
2023-05-05T19:14:24.473Z,9.60
2023-05-05T19:16:53.036Z,9.30
2023-05-05T19:19:21.263Z,9.20
2023-05-05T19:21:49.174Z,9.10
2023-05-05T19:24:17.082Z,8.50
2023-05-05T19:26:45.149Z,8.40
2023-05-05T19:29:13.301Z,8.40
2023-05-05T19:31:41.329Z,7.90
2023-05-05T19:34:09.328Z,8.00
2023-05-05T19:36:38.128Z,8.60
2023-05-05T19:39:06.076Z,8.30
2023-05-05T19:41:35.543Z,8.30
2023-05-05T19:44:03.728Z,8.30
2023-05-05T19:46:31.803Z,8.30
2023-05-05T19:48:59.699Z,7.50
2023-05-05T19:51:27.635Z,7.80
2023-05-05T19:53:55.616Z,7.90
2023-05-05T19:56:24.033Z,8.00
2023-05-05T19:58:54.348Z,9.10
2023-05-05T20:01:22.547Z,10.80
2023-05-05T20:03:51.536Z,9.40
2023-05-05T20:06:19.810Z,9.70
2023-05-05T20:08:47.746Z,7.10
2023-05-05T20:11:17.066Z,7.50
2023-05-05T20:13:45.001Z,7.60
2023-05-05T20:16:13.831Z,6.30
2023-05-05T20:18:41.792Z,6.80
2023-05-05T20:21:09.775Z,6.70
2023-05-05T20:23:37.764Z,6.00
2023-05-05T20:26:06.435Z,7.00
2023-05-05T20:28:34.478Z,6.50
2023-05-05T20:31:02.435Z,6.90
2023-05-05T20:33:30.419Z,6.50
2023-05-05T20:35:58.328Z,6.50
2023-05-05T20:38:26.291Z,11.50
2023-05-05T20:40:54.183Z,6.50
2023-05-05T20:43:22.058Z,5.80
2023-05-05T20:45:49.957Z,6.70
2023-05-05T20:48:18.017Z,5.70
2023-05-05T20:50:45.931Z,5.40
2023-05-05T20:53:15.157Z,5.70
2023-05-05T20:55:43.600Z,5.40
2023-05-05T20:58:11.830Z,5.90
2023-05-05T21:00:40.180Z,5.60
2023-05-05T21:03:08.317Z,5.10
2023-05-05T21:05:37.368Z,5.60
2023-05-05T21:08:05.572Z,5.70
2023-05-05T21:10:33.802Z,5.40
2023-05-05T21:13:03.066Z,5.50
2023-05-05T21:15:32.029Z,4.80
2023-05-05T21:18:00.003Z,5.90
2023-05-05T21:20:27.964Z,4.90
2023-05-05T21:22:56.998Z,6.10
2023-05-05T21:25:25.504Z,5.50
2023-05-05T21:27:53.466Z,6.30
2023-05-05T21:30:23.187Z,5.90
2023-05-05T21:32:52.099Z,6.30
2023-05-05T21:35:20.079Z,5.60
2023-05-05T21:37:48.937Z,6.50
2023-05-05T21:40:16.902Z,6.70
2023-05-05T21:42:45.169Z,8.80
2023-05-05T21:45:13.130Z,7.90
2023-05-05T21:47:41.148Z,7.60
2023-05-05T21:50:10.407Z,7.80
2023-05-05T21:52:38.701Z,8.10
2023-05-05T21:55:07.030Z,8.00
2023-05-05T21:57:35.043Z,7.50
2023-05-05T22:00:06.076Z,7.40
2023-05-05T22:02:40.493Z,6.90
2023-05-05T22:05:09.373Z,7.30
2023-05-05T22:07:37.273Z,6.70
2023-05-05T22:10:05.587Z,7.30
2023-05-05T22:12:33.605Z,7.10
2023-05-05T22:15:01.751Z,7.20
2023-05-05T22:17:29.691Z,7.80
2023-05-05T22:19:57.664Z,7.50
2023-05-05T22:22:25.607Z,7.50
2023-05-05T22:24:53.527Z,7.80
2023-05-05T22:27:21.464Z,8.60
2023-05-05T22:29:49.448Z,8.00
2023-05-05T22:32:17.330Z,7.60
2023-05-05T22:34:45.212Z,7.90
2023-05-05T22:37:14.175Z,8.30
2023-05-05T22:39:42.094Z,7.90
2023-05-05T22:42:09.973Z,7.80
2023-05-05T22:44:38.935Z,7.20
2023-05-05T22:47:07.135Z,7.90
2023-05-05T22:49:35.235Z,7.40
2023-05-05T22:52:03.602Z,6.80
2023-05-05T22:54:32.038Z,6.70
2023-05-05T22:57:00.020Z,7.00
2023-05-05T22:59:27.922Z,6.80
2023-05-05T23:01:55.882Z,6.60
2023-05-05T23:04:23.988Z,6.70
2023-05-05T23:06:52.122Z,6.80
2023-05-05T23:09:20.081Z,7.10
2023-05-05T23:11:47.998Z,6.40
2023-05-05T23:14:16.998Z,6.30
2023-05-05T23:16:47.808Z,6.50
2023-05-05T23:19:15.781Z,6.30
2023-05-05T23:21:52.727Z,6.50
2023-05-05T23:24:22.105Z,6.60
2023-05-05T23:26:52.014Z,6.80
2023-05-05T23:29:20.782Z,6.40
2023-05-05T23:31:48.705Z,6.70
2023-05-05T23:34:16.647Z,7.00
2023-05-05T23:36:44.546Z,6.10
2023-05-05T23:39:12.444Z,6.50
2023-05-05T23:41:40.435Z,6.60
2023-05-05T23:44:08.469Z,7.40
2023-05-05T23:46:36.469Z,6.40
2023-05-05T23:49:04.427Z,7.30
2023-05-05T23:51:32.925Z,7.00
2023-05-05T23:54:01.279Z,7.00
2023-05-05T23:56:29.167Z,6.40
2023-05-05T23:58:57.050Z,7.10
